createdAt,value
2023-01-21T00:03:08.802Z,65.20
2023-01-21T00:08:10.433Z,64.39
2023-01-21T00:13:16.517Z,64.62
2023-01-21T00:18:18.311Z,64.82
2023-01-21T00:23:20.211Z,66.03
2023-01-21T00:28:22.361Z,66.32
2023-01-21T00:33:24.267Z,67.49
2023-01-21T00:38:26.096Z,69.96
2023-01-21T00:43:28.247Z,70.91
2023-01-21T00:48:34.597Z,71.40
2023-01-21T00:53:41.926Z,71.21
2023-01-21T00:58:43.674Z,71.40
2023-01-21T01:03:47.112Z,70.32
2023-01-21T01:08:49.839Z,70.34
2023-01-21T01:13:52.147Z,70.86
2023-01-21T01:18:54.173Z,69.80
2023-01-21T01:23:57.700Z,69.49
2023-01-21T01:29:00.442Z,71.66
2023-01-21T01:34:02.219Z,71.71
2023-01-21T01:39:05.238Z,72.19
2023-01-21T01:44:45.778Z,71.17
2023-01-21T01:49:48.369Z,73.01
2023-01-21T01:54:54.905Z,72.16
2023-01-21T01:59:57.173Z,70.31
2023-01-21T02:05:04.583Z,70.58
2023-01-21T02:10:11.867Z,70.14
2023-01-21T02:15:13.578Z,71.79
2023-01-21T02:20:33.856Z,71.81
2023-01-21T02:25:55.144Z,72.64
2023-01-21T02:31:10.581Z,71.34
2023-01-21T02:36:43.444Z,71.48
2023-01-21T02:42:06.503Z,71.04
2023-01-21T02:47:38.216Z,70.65
2023-01-21T02:52:39.938Z,73.85
2023-01-21T02:57:44.670Z,73.43
2023-01-21T03:03:20.271Z,75.51
2023-01-21T03:08:30.519Z,75.30
2023-01-21T03:14:00.793Z,75.00
2023-01-21T03:19:06.730Z,74.49
2023-01-21T03:24:11.027Z,75.37
2023-01-21T03:29:17.559Z,75.56
2023-01-21T03:34:20.285Z,75.78
2023-01-21T03:39:42.763Z,75.83
2023-01-21T03:44:46.119Z,76.45
2023-01-21T03:49:52.325Z,76.59
2023-01-21T03:54:54.455Z,76.53
2023-01-21T03:59:56.350Z,75.53
2023-01-21T04:04:58.421Z,75.37
2023-01-21T04:10:00.165Z,76.07
2023-01-21T04:15:05.068Z,75.02
2023-01-21T04:20:08.219Z,71.78
2023-01-21T04:25:10.114Z,72.06
2023-01-21T04:30:12.011Z,71.94
2023-01-21T04:35:13.826Z,72.23
2023-01-21T04:40:15.929Z,72.92
2023-01-21T04:45:17.967Z,71.75
2023-01-21T04:50:19.782Z,70.07
2023-01-21T04:55:21.486Z,70.59
2023-01-21T05:00:23.515Z,70.20
2023-01-21T05:05:25.308Z,71.85
2023-01-21T05:10:27.121Z,72.00
2023-01-21T05:15:29.215Z,74.44
2023-01-21T05:20:31.035Z,75.04
2023-01-21T05:25:32.652Z,75.57
2023-01-21T05:30:34.434Z,75.14
2023-01-21T05:35:36.150Z,75.15
2023-01-21T05:40:37.965Z,74.13
2023-01-21T05:45:39.658Z,73.54
2023-01-21T05:50:41.260Z,75.01
2023-01-21T05:55:43.112Z,76.51
2023-01-21T06:00:56.423Z,76.58
2023-01-21T06:05:58.192Z,77.95
2023-01-21T06:11:00.025Z,78.04
2023-01-21T06:16:01.902Z,77.03
2023-01-21T06:21:03.741Z,77.57
2023-01-21T06:26:05.485Z,77.68
2023-01-21T06:31:07.354Z,77.41
2023-01-21T06:36:09.444Z,77.50
2023-01-21T06:41:11.557Z,76.73
2023-01-21T06:46:13.874Z,77.90
2023-01-21T06:51:15.681Z,76.19
2023-01-21T06:56:17.658Z,74.17
2023-01-21T07:01:19.353Z,75.63
2023-01-21T07:06:22.465Z,74.91
2023-01-21T07:11:28.262Z,74.69
2023-01-21T07:16:30.023Z,75.23
2023-01-21T07:21:31.868Z,74.87
2023-01-21T07:26:37.850Z,75.08
2023-01-21T07:31:39.799Z,74.01
2023-01-21T07:36:41.669Z,73.72
2023-01-21T07:41:46.161Z,75.04
2023-01-21T07:46:47.837Z,76.78
2023-01-21T07:51:49.454Z,76.31
2023-01-21T07:56:51.133Z,75.07
2023-01-21T08:01:53.080Z,75.27
2023-01-21T08:06:57.155Z,75.88
2023-01-21T08:11:59.073Z,74.92
2023-01-21T08:17:01.478Z,75.88
2023-01-21T08:22:03.303Z,76.23
2023-01-21T08:27:05.044Z,76.34
2023-01-21T08:32:06.818Z,75.56
2023-01-21T08:37:08.552Z,75.88
2023-01-21T08:42:10.197Z,75.46
2023-01-21T08:47:11.898Z,75.87
2023-01-21T08:52:13.598Z,76.58
2023-01-21T08:57:15.430Z,75.04
2023-01-21T09:02:17.146Z,75.75
2023-01-21T09:07:19.005Z,76.87
2023-01-21T09:12:20.959Z,76.93
2023-01-21T09:17:23.352Z,77.08
2023-01-21T09:22:25.118Z,77.02
2023-01-21T09:27:28.274Z,76.32
2023-01-21T09:32:34.201Z,76.33
2023-01-21T09:37:36.025Z,75.99
2023-01-21T09:42:37.759Z,76.18
2023-01-21T09:47:43.753Z,75.68
2023-01-21T09:52:48.759Z,75.46
2023-01-21T09:58:20.143Z,75.45
2023-01-21T10:03:36.230Z,74.87
2023-01-21T10:08:48.951Z,75.02
2023-01-21T10:13:56.559Z,74.70
2023-01-21T10:19:01.310Z,74.32
2023-01-21T10:24:11.939Z,73.95
2023-01-21T10:29:18.950Z,73.73
2023-01-21T10:34:20.697Z,72.80
2023-01-21T10:39:31.334Z,72.05
2023-01-21T10:44:53.162Z,71.56
2023-01-21T10:50:00.658Z,70.65
2023-01-21T10:55:17.692Z,70.35
2023-01-21T11:00:33.558Z,70.57
2023-01-21T11:05:35.744Z,71.16
2023-01-21T11:10:39.976Z,71.02
2023-01-21T11:15:53.286Z,70.53
2023-01-21T11:20:59.225Z,70.26
2023-01-21T11:26:04.211Z,70.82
2023-01-21T11:31:27.196Z,71.31
2023-01-21T11:36:29.255Z,71.97
2023-01-21T11:41:31.869Z,71.88
2023-01-21T11:46:39.524Z,71.76
2023-01-21T11:51:44.807Z,71.24
2023-01-21T11:56:56.469Z,71.30
2023-01-21T12:02:03.670Z,71.44
2023-01-21T12:07:05.726Z,71.77
2023-01-21T12:12:56.620Z,71.89
2023-01-21T12:18:20.547Z,71.39
2023-01-21T12:23:40.959Z,70.74
2023-01-21T12:28:48.880Z,71.44
2023-01-21T12:33:57.947Z,71.08
2023-01-21T12:39:16.713Z,70.76
2023-01-21T12:44:27.299Z,71.60
2023-01-21T12:49:53.774Z,71.63
2023-01-21T12:55:23.279Z,70.93
2023-01-21T13:00:29.382Z,70.24
2023-01-21T13:05:53.156Z,69.87
2023-01-21T13:11:03.383Z,69.22
2023-01-21T13:16:08.882Z,69.05
2023-01-21T13:21:35.389Z,68.64
2023-01-21T13:26:50.989Z,68.30
2023-01-21T13:32:17.524Z,67.39
2023-01-21T13:37:42.273Z,66.37
2023-01-21T13:42:57.792Z,65.96
2023-01-21T13:48:22.216Z,66.51
2023-01-21T13:53:35.415Z,66.65
2023-01-21T13:58:51.559Z,66.07
2023-01-21T14:04:04.731Z,65.81
2023-01-21T14:09:18.311Z,65.56
2023-01-21T14:14:46.850Z,66.19
2023-01-21T14:20:24.104Z,66.15
2023-01-21T14:25:52.794Z,65.63
2023-01-21T14:31:13.874Z,65.60
2023-01-21T14:36:24.063Z,66.53
2023-01-21T14:42:04.625Z,66.95
2023-01-21T14:47:22.821Z,66.82
2023-01-21T14:52:37.777Z,66.96
2023-01-21T14:57:42.766Z,67.43
2023-01-21T15:02:53.336Z,68.14
2023-01-21T15:08:07.290Z,68.68
2023-01-21T15:13:34.298Z,68.52
2023-01-21T15:18:39.240Z,68.22
2023-01-21T15:23:43.950Z,68.79
2023-01-21T15:28:55.907Z,68.68
2023-01-21T15:34:01.813Z,69.32
2023-01-21T15:39:13.833Z,69.26
2023-01-21T15:44:18.506Z,68.66
2023-01-21T15:49:38.456Z,67.80
2023-01-21T15:54:52.452Z,67.52
2023-01-21T16:00:22.303Z,65.57
2023-01-21T16:05:36.450Z,62.07
2023-01-21T16:11:15.770Z,61.59
2023-01-21T16:16:32.385Z,62.19
2023-01-21T16:21:36.454Z,63.37
2023-01-21T16:26:38.129Z,62.59
2023-01-21T16:31:59.938Z,62.60
2023-01-21T16:37:06.312Z,62.04
2023-01-21T16:42:23.600Z,62.00
2023-01-21T16:47:33.458Z,62.29
2023-01-21T16:52:35.567Z,62.50
2023-01-21T16:57:37.551Z,62.48
2023-01-21T17:02:39.361Z,62.23
2023-01-21T17:07:51.978Z,62.52
2023-01-21T17:12:58.588Z,62.37
2023-01-21T17:18:01.005Z,61.15
2023-01-21T17:23:07.769Z,61.79
2023-01-21T17:28:29.127Z,62.11
2023-01-21T17:33:31.141Z,62.68
2023-01-21T17:38:39.702Z,62.49
2023-01-21T17:43:49.191Z,62.26
2023-01-21T17:48:54.860Z,61.82
2023-01-21T17:54:03.928Z,61.98
2023-01-21T17:59:34.569Z,62.25
2023-01-21T18:04:36.314Z,60.59
2023-01-21T18:09:38.203Z,61.59
2023-01-21T18:14:40.925Z,62.48
2023-01-21T18:19:42.842Z,61.82
2023-01-21T18:24:44.645Z,61.63
2023-01-21T18:29:48.035Z,61.10
2023-01-21T18:34:49.757Z,60.82
2023-01-21T18:39:51.435Z,60.60
2023-01-21T18:44:53.229Z,61.01
2023-01-21T18:49:54.994Z,60.14
2023-01-21T18:54:58.320Z,59.72
2023-01-21T19:00:00.228Z,61.53
2023-01-21T19:05:02.081Z,61.66
2023-01-21T19:10:04.271Z,61.21
2023-01-21T19:15:08.676Z,59.97
2023-01-21T19:20:20.268Z,60.47
2023-01-21T19:25:25.615Z,61.59
2023-01-21T19:30:32.396Z,62.67
2023-01-21T19:35:59.730Z,62.42
2023-01-21T19:41:01.746Z,63.39
2023-01-21T19:46:03.550Z,62.09
2023-01-21T19:51:05.590Z,61.87
2023-01-21T19:56:23.268Z,62.27
2023-01-21T20:01:25.035Z,63.15
2023-01-21T20:06:30.087Z,64.00
2023-01-21T20:11:31.937Z,63.26
2023-01-21T20:16:34.042Z,63.34
2023-01-21T20:21:40.115Z,63.01
2023-01-21T20:26:44.737Z,63.27
2023-01-21T20:31:46.531Z,63.52
2023-01-21T20:36:49.686Z,64.39
2023-01-21T20:41:51.434Z,65.06
2023-01-21T20:46:54.308Z,64.93
2023-01-21T20:51:56.102Z,65.07
2023-01-21T20:56:57.846Z,65.82
2023-01-21T21:01:59.581Z,66.12
2023-01-21T21:07:01.263Z,66.33
2023-01-21T21:12:03.101Z,64.96
2023-01-21T21:17:09.828Z,63.04
2023-01-21T21:22:11.560Z,61.21
2023-01-21T21:27:13.429Z,60.66
2023-01-21T21:32:15.237Z,62.02
2023-01-21T21:37:16.966Z,61.40
2023-01-21T21:42:37.227Z,61.74
2023-01-21T21:47:57.521Z,63.54
2023-01-21T21:52:59.210Z,62.44
2023-01-21T21:58:00.902Z,62.40
2023-01-21T22:03:02.861Z,62.74
2023-01-21T22:08:04.739Z,63.47
2023-01-21T22:13:09.218Z,63.63
2023-01-21T22:18:10.811Z,64.14
2023-01-21T22:23:12.521Z,63.89
2023-01-21T22:28:14.291Z,63.09
2023-01-21T22:33:16.413Z,62.84
2023-01-21T22:38:19.492Z,61.82
2023-01-21T22:43:21.300Z,61.54
2023-01-21T22:48:23.741Z,62.11
2023-01-21T22:53:26.650Z,61.50
2023-01-21T22:58:30.437Z,61.06
2023-01-21T23:03:32.969Z,61.01
2023-01-21T23:08:37.753Z,62.07
2023-01-21T23:13:39.827Z,60.93
2023-01-21T23:18:42.211Z,57.49
2023-01-21T23:23:44.381Z,61.62
2023-01-21T23:28:47.221Z,66.88
2023-01-21T23:33:54.571Z,62.95
2023-01-21T23:38:56.291Z,61.83
2023-01-21T23:44:01.860Z,63.57
2023-01-21T23:49:03.626Z,61.05
2023-01-21T23:54:05.471Z,60.53
2023-01-21T23:59:07.739Z,60.44
